This is the latest recevied weather packets stored in our database for station/object S51UL-6. If no packets are shown the sender has not sent any weather packets the latest 10 day(s).
| Time | Temp. | Humidity | Pressure | Rain* | Wind** | Luminosity | Snow |
|---|---|---|---|---|---|---|---|
| 1787994446 | 21.67° C | 72% | 1018.8 hPa | 0.51 mm | - | - | - |
| 1787994148 | 21.67° C | 72% | 1018.9 hPa | 1.02 mm | - | - | - |
| 1787993547 | 21.11° C | 75% | 1018.5 hPa | 1.02 mm | - | - | - |
| 1787992947 | 20° C | 77% | 1018.3 hPa | 1.02 mm | - | - | - |
| 1787992346 | 19.44° C | 76% | 1018.4 hPa | 1.02 mm | - | - | - |
| 1787992047 | 19.44° C | 75% | 1018.1 hPa | 1.02 mm | - | - | - |
| 1787991447 | 20° C | 72% | 1018.7 hPa | 0.51 mm | - | - | - |
| 1787991147 | 20.56° C | 70% | 1018.7 hPa | 0.51 mm | - | - | - |
| 1787990848 | 20.56° C | 67% | 1018.3 hPa | 0 mm | - | - | - |
| 1787990547 | 21.11° C | 66% | 1018.4 hPa | 0 mm | - | - | - |
| 1787989348 | 22.22° C | 63% | 1017.5 hPa | 0.51 mm | - | - | - |
| 1787989047 | 22.22° C | 62% | 1017.6 hPa | 0.51 mm | - | - | - |
| 1787988448 | 22.22° C | 62% | 1017.1 hPa | 0.51 mm | - | - | - |
| 1787987851 | 22.22° C | 64% | 1017.2 hPa | 0.51 mm | - | - | - |
| 1787987247 | 22.22° C | 66% | 1017.1 hPa | 0.51 mm | - | - | - |
| 1787986948 | 22.22° C | 67% | 1017.3 hPa | 0.51 mm | - | - | - |
| 1787986348 | 21.67° C | 69% | 1016.9 hPa | 0 mm | - | - | - |
| 1787986048 | 21.67° C | 70% | 1017 hPa | 0 mm | - | - | - |
| 1787985748 | 21.11° C | 71% | 1016.8 hPa | 0 mm | - | - | - |
| 1787985449 | 21.11° C | 71% | 1017.1 hPa | 0 mm | - | - | - |
| 1787985149 | 20.56° C | 72% | 1017.1 hPa | 0 mm | - | - | - |
| 1787984549 | 20.56° C | 71% | 1017.1 hPa | 0 mm | - | - | - |
| 1787984248 | 20.56° C | 70% | 1017.1 hPa | 0 mm | - | - | - |
| 1787983948 | 20.56° C | 70% | 1017 hPa | 0 mm | - | - | - |
| 1787983648 | 20.56° C | 69% | 1016.7 hPa | 0 mm | - | - | - |
* Rain latest hour (hover to see other rain measurements)
** Current wind speed in m/s (hover to see current wind gust speed)